createdAt,value
2023-02-27T00:01:16.911Z,1.73
2023-02-27T00:03:44.305Z,1.92
2023-02-27T00:06:11.719Z,1.60
2023-02-27T00:08:39.129Z,1.83
2023-02-27T00:11:06.794Z,2.03
2023-02-27T00:13:34.232Z,1.60
2023-02-27T00:16:02.970Z,1.98
2023-02-27T00:18:30.397Z,1.83
2023-02-27T00:20:57.768Z,1.80
2023-02-27T00:23:25.152Z,1.92
2023-02-27T00:25:54.676Z,1.80
2023-02-27T00:28:22.086Z,1.67
2023-02-27T00:30:49.498Z,1.95
2023-02-27T00:33:18.349Z,1.80
2023-02-27T00:35:45.714Z,1.63
2023-02-27T00:38:13.107Z,1.60
2023-02-27T00:40:40.862Z,1.90
2023-02-27T00:43:08.242Z,1.60
2023-02-27T00:45:35.607Z,1.60
2023-02-27T00:48:03.020Z,1.60
2023-02-27T00:50:31.740Z,1.73
2023-02-27T00:52:59.143Z,1.40
2023-02-27T00:55:27.443Z,2.08
2023-02-27T00:57:55.033Z,1.70
2023-02-27T01:00:22.729Z,1.60
2023-02-27T01:02:50.130Z,1.80
2023-02-27T01:05:17.753Z,1.70
2023-02-27T01:07:46.436Z,2.00
2023-02-27T01:10:13.895Z,1.70
2023-02-27T01:12:41.338Z,1.80
2023-02-27T01:15:10.060Z,1.85
2023-02-27T01:17:37.467Z,1.77
2023-02-27T01:20:05.762Z,1.60
2023-02-27T01:22:33.401Z,1.50
2023-02-27T01:25:02.100Z,1.88
2023-02-27T01:27:29.479Z,1.70
2023-02-27T01:29:56.863Z,1.67
2023-02-27T01:32:24.344Z,1.58
2023-02-27T01:34:51.823Z,1.45
2023-02-27T01:37:19.313Z,1.60
2023-02-27T01:39:46.712Z,1.35
2023-02-27T01:42:20.237Z,1.38
2023-02-27T01:45:25.975Z,1.92
2023-02-27T01:47:55.060Z,1.50
2023-02-27T01:50:22.503Z,1.88
2023-02-27T01:52:53.561Z,1.30
2023-02-27T01:55:21.019Z,1.42
2023-02-27T01:57:49.700Z,1.90
2023-02-27T02:00:17.691Z,1.60
2023-02-27T02:02:48.043Z,1.80
2023-02-27T02:05:15.424Z,1.25
2023-02-27T02:07:43.062Z,1.60
2023-02-27T02:10:12.004Z,1.40
2023-02-27T02:12:39.384Z,1.40
2023-02-27T02:15:09.281Z,1.55
2023-02-27T02:17:40.906Z,1.60
2023-02-27T02:20:45.458Z,1.30
2023-02-27T02:23:55.501Z,1.45
2023-02-27T02:26:33.714Z,1.25
2023-02-27T02:29:33.492Z,1.65
2023-02-27T02:32:34.516Z,1.60
2023-02-27T02:35:31.784Z,1.48
2023-02-27T02:38:25.034Z,1.30
2023-02-27T02:40:53.521Z,1.67
2023-02-27T02:43:23.361Z,1.50
2023-02-27T02:45:52.604Z,1.60
2023-02-27T02:48:21.603Z,1.63
2023-02-27T02:50:50.963Z,1.60
2023-02-27T02:53:26.750Z,1.50
2023-02-27T02:55:59.769Z,1.70
2023-02-27T02:58:28.863Z,1.60
2023-02-27T03:00:57.541Z,1.88
2023-02-27T03:03:27.032Z,1.58
2023-02-27T03:05:55.718Z,1.52
2023-02-27T03:08:26.108Z,1.75
2023-02-27T03:10:54.700Z,1.60
2023-02-27T03:13:23.255Z,1.50
2023-02-27T03:15:52.837Z,1.85
2023-02-27T03:18:21.441Z,1.60
2023-02-27T03:20:51.114Z,1.80
2023-02-27T03:23:19.609Z,1.52
2023-02-27T03:25:48.313Z,1.50
2023-02-27T03:28:17.712Z,1.40
2023-02-27T03:30:46.227Z,1.52
2023-02-27T03:33:14.829Z,1.40
2023-02-27T03:35:45.607Z,1.70
2023-02-27T03:38:16.830Z,1.52
2023-02-27T03:40:47.872Z,1.80
2023-02-27T03:43:18.887Z,1.60
2023-02-27T03:45:49.852Z,1.35
2023-02-27T03:48:17.307Z,1.50
2023-02-27T03:50:44.689Z,1.60
2023-02-27T03:53:13.849Z,1.50
2023-02-27T03:55:42.344Z,1.60
2023-02-27T03:58:09.730Z,1.67
2023-02-27T04:00:38.442Z,1.60
2023-02-27T04:03:05.859Z,1.40
2023-02-27T04:05:33.446Z,1.40
2023-02-27T04:08:09.697Z,1.52
2023-02-27T04:10:45.489Z,1.25
2023-02-27T04:13:38.612Z,1.60
2023-02-27T04:16:28.252Z,1.20
2023-02-27T04:19:01.131Z,1.48
2023-02-27T04:21:30.033Z,1.40
2023-02-27T04:23:58.656Z,1.42
2023-02-27T04:26:28.782Z,1.27
2023-02-27T04:31:29.922Z,1.42
2023-02-27T04:33:59.994Z,1.40
2023-02-27T04:36:28.982Z,1.35
2023-02-27T04:39:00.756Z,1.40
2023-02-27T04:41:30.146Z,1.30
2023-02-27T04:43:57.557Z,1.60
2023-02-27T04:46:27.362Z,1.60
2023-02-27T04:48:56.357Z,1.45
2023-02-27T04:51:26.004Z,1.63
2023-02-27T04:53:55.692Z,1.60
2023-02-27T04:56:25.668Z,1.73
2023-02-27T04:58:54.324Z,1.60
2023-02-27T05:01:23.299Z,1.73
2023-02-27T05:03:53.384Z,2.20
2023-02-27T05:06:22.939Z,1.95
2023-02-27T05:08:52.033Z,2.20
2023-02-27T05:11:22.034Z,1.90
2023-02-27T05:13:51.696Z,1.88
2023-02-27T05:16:21.136Z,2.00
2023-02-27T05:18:48.518Z,2.00
2023-02-27T05:21:22.871Z,1.95
2023-02-27T05:23:55.250Z,1.63
2023-02-27T05:26:25.819Z,1.60
2023-02-27T05:28:55.023Z,2.00
2023-02-27T05:31:25.523Z,1.97
2023-02-27T05:33:55.621Z,1.80
2023-02-27T05:36:25.879Z,1.92
2023-02-27T05:38:54.927Z,1.77
2023-02-27T05:41:24.140Z,2.10
2023-02-27T05:43:52.449Z,1.70
2023-02-27T05:46:21.420Z,1.92
2023-02-27T05:48:50.036Z,1.90
2023-02-27T05:51:17.556Z,2.20
2023-02-27T05:53:49.372Z,2.20
2023-02-27T05:56:17.410Z,2.85
2023-02-27T05:58:46.406Z,2.60
2023-02-27T06:01:13.859Z,2.60
2023-02-27T06:03:41.349Z,2.63
2023-02-27T06:06:09.594Z,2.60
2023-02-27T06:08:36.979Z,2.67
2023-02-27T06:11:06.091Z,2.50
2023-02-27T06:13:33.593Z,2.78
2023-02-27T06:16:01.096Z,2.80
2023-02-27T06:18:28.487Z,2.35
2023-02-27T06:20:55.899Z,2.55
2023-02-27T06:23:23.297Z,2.40
2023-02-27T06:25:50.770Z,2.65
2023-02-27T06:28:19.491Z,3.03
2023-02-27T06:30:46.904Z,2.83
2023-02-27T06:33:14.349Z,2.92
2023-02-27T06:35:41.835Z,3.00
2023-02-27T06:38:09.234Z,3.25
2023-02-27T06:40:38.216Z,2.90
2023-02-27T06:43:05.587Z,3.60
2023-02-27T06:45:34.292Z,3.85
2023-02-27T06:48:01.672Z,3.38
2023-02-27T06:50:29.360Z,3.47
2023-02-27T06:52:56.743Z,3.90
2023-02-27T06:55:25.597Z,4.05
2023-02-27T06:57:53.039Z,4.00
2023-02-27T07:00:21.235Z,4.45
2023-02-27T07:02:49.916Z,4.18
2023-02-27T07:05:18.009Z,4.15
2023-02-27T07:07:45.688Z,3.85
2023-02-27T07:10:14.170Z,4.30
2023-02-27T07:12:41.642Z,4.68
2023-02-27T07:15:09.413Z,4.40
2023-02-27T07:17:37.752Z,4.50
2023-02-27T07:20:08.147Z,5.32
2023-02-27T07:22:35.619Z,5.32
2023-02-27T07:25:03.094Z,6.07
2023-02-27T07:27:30.490Z,5.90
2023-02-27T07:29:57.869Z,5.13
2023-02-27T07:32:25.380Z,6.38
2023-02-27T07:34:52.790Z,6.47
2023-02-27T07:37:21.583Z,5.85
2023-02-27T07:39:48.951Z,6.85
2023-02-27T07:42:16.574Z,7.28
2023-02-27T07:44:43.944Z,6.70
2023-02-27T07:47:11.583Z,15.02
2023-02-27T07:49:39.026Z,9.10
2023-02-27T07:52:07.627Z,7.82
2023-02-27T07:54:37.466Z,8.40
2023-02-27T07:57:04.995Z,9.10
2023-02-27T07:59:32.381Z,8.13
2023-02-27T08:01:59.776Z,7.95
2023-02-27T08:04:27.184Z,8.48
2023-02-27T08:06:54.593Z,7.20
2023-02-27T08:09:21.969Z,7.45
2023-02-27T08:11:50.671Z,7.85
2023-02-27T08:14:18.050Z,6.65
2023-02-27T08:16:45.498Z,6.35
2023-02-27T08:19:13.511Z,6.18
2023-02-27T08:21:40.911Z,5.88
2023-02-27T08:24:08.297Z,5.53
2023-02-27T08:26:35.699Z,6.15
2023-02-27T08:29:04.433Z,6.00
2023-02-27T08:31:31.819Z,5.32
2023-02-27T08:34:09.349Z,5.13
2023-02-27T08:36:37.872Z,5.10
2023-02-27T08:39:05.412Z,5.68
2023-02-27T08:41:32.800Z,5.30
2023-02-27T08:44:00.243Z,4.40
2023-02-27T08:46:29.399Z,4.70
2023-02-27T08:48:56.943Z,4.63
2023-02-27T08:51:24.347Z,4.60
2023-02-27T08:53:51.803Z,4.88
2023-02-27T08:56:19.221Z,4.68
2023-02-27T08:58:46.673Z,4.60
2023-02-27T09:01:14.121Z,3.88
2023-02-27T09:03:42.843Z,4.90
2023-02-27T09:06:10.231Z,4.93
2023-02-27T09:08:37.625Z,5.07
2023-02-27T09:11:05.126Z,4.72
2023-02-27T09:13:32.494Z,4.55
2023-02-27T09:15:59.870Z,4.93
2023-02-27T09:18:27.347Z,4.32
2023-02-27T09:20:56.893Z,4.60
2023-02-27T09:23:24.261Z,4.55
2023-02-27T09:25:51.660Z,4.70
2023-02-27T09:28:19.924Z,4.80
2023-02-27T09:30:47.320Z,3.90
2023-02-27T09:33:15.370Z,4.13
2023-02-27T09:35:42.784Z,3.85
2023-02-27T09:38:12.116Z,3.60
2023-02-27T09:40:41.050Z,3.73
2023-02-27T09:43:10.974Z,3.60
2023-02-27T09:45:39.193Z,3.70
2023-02-27T09:48:09.220Z,3.72
2023-02-27T09:50:38.714Z,3.40
2023-02-27T09:53:06.831Z,2.72
2023-02-27T09:55:36.586Z,3.20
2023-02-27T09:58:07.577Z,3.40
2023-02-27T10:00:43.866Z,3.40
2023-02-27T10:03:18.107Z,3.38
2023-02-27T10:05:47.824Z,3.38
2023-02-27T10:08:18.250Z,3.55
2023-02-27T10:10:48.915Z,3.30
2023-02-27T10:13:30.398Z,3.05
2023-02-27T10:15:57.814Z,2.97
2023-02-27T10:18:30.643Z,2.67
2023-02-27T10:20:59.621Z,3.03
2023-02-27T10:23:32.584Z,3.20
2023-02-27T10:26:01.340Z,2.67
2023-02-27T10:28:28.818Z,2.40
2023-02-27T10:30:56.944Z,2.88
2023-02-27T10:33:28.689Z,2.40
2023-02-27T10:35:56.157Z,2.58
2023-02-27T10:38:30.144Z,2.42
2023-02-27T10:40:57.916Z,2.65
2023-02-27T10:43:26.699Z,2.70
2023-02-27T10:45:54.229Z,2.70
2023-02-27T10:48:22.517Z,2.47
2023-02-27T10:50:51.940Z,2.60
2023-02-27T10:53:21.493Z,2.40
2023-02-27T10:55:56.783Z,2.50
2023-02-27T10:58:24.199Z,2.08
2023-02-27T11:00:55.824Z,2.33
2023-02-27T11:03:24.845Z,2.45
2023-02-27T11:05:56.419Z,2.20
2023-02-27T11:08:24.902Z,1.98
2023-02-27T11:10:57.268Z,2.17
2023-02-27T11:13:25.840Z,1.90
2023-02-27T11:16:12.083Z,1.85
2023-02-27T11:18:39.940Z,1.80
2023-02-27T11:21:21.057Z,1.80
2023-02-27T11:23:57.017Z,1.98
2023-02-27T11:26:27.581Z,2.10
2023-02-27T11:29:15.711Z,2.10
2023-02-27T11:31:49.164Z,1.90
2023-02-27T11:34:21.700Z,1.77
2023-02-27T11:36:49.842Z,1.55
2023-02-27T11:39:29.587Z,1.85
2023-02-27T11:41:58.575Z,1.95
2023-02-27T11:44:50.895Z,2.00
2023-02-27T11:47:17.533Z,1.80
2023-02-27T11:50:14.735Z,1.80
2023-02-27T11:52:45.540Z,1.70
2023-02-27T11:55:15.795Z,1.98
2023-02-27T11:57:44.151Z,1.50
2023-02-27T12:00:17.857Z,1.50
2023-02-27T12:02:49.093Z,1.42
2023-02-27T12:05:17.850Z,1.85
2023-02-27T12:07:45.935Z,1.70
2023-02-27T12:10:16.897Z,1.58
2023-02-27T12:12:46.233Z,1.33
2023-02-27T12:15:20.595Z,1.60
2023-02-27T12:17:51.039Z,1.63
2023-02-27T12:20:34.984Z,1.50
2023-02-27T12:23:02.975Z,1.60
2023-02-27T12:25:34.830Z,1.60
2023-02-27T12:28:04.826Z,1.60
2023-02-27T12:30:34.687Z,1.63
2023-02-27T12:33:04.487Z,1.55
2023-02-27T12:35:32.972Z,1.77
2023-02-27T12:38:00.543Z,1.77
2023-02-27T12:40:31.309Z,1.58
2023-02-27T12:43:10.614Z,1.55
2023-02-27T12:45:58.875Z,1.13
2023-02-27T12:48:40.094Z,1.48
2023-02-27T12:51:11.164Z,1.50
2023-02-27T12:53:56.084Z,1.40
2023-02-27T12:56:24.542Z,1.77
2023-02-27T12:58:56.259Z,2.28
2023-02-27T13:01:29.986Z,1.77
2023-02-27T13:04:00.140Z,2.50
2023-02-27T13:06:30.229Z,1.77
2023-02-27T13:09:04.459Z,2.45
2023-02-27T13:11:37.268Z,2.20
2023-02-27T13:14:07.510Z,1.95
2023-02-27T13:16:36.427Z,2.00
2023-02-27T13:19:07.337Z,1.98
2023-02-27T13:21:37.167Z,2.00
2023-02-27T13:24:13.022Z,1.80
2023-02-27T13:26:41.328Z,1.60
2023-02-27T13:29:12.252Z,1.60
2023-02-27T13:31:43.214Z,1.90
2023-02-27T13:34:17.618Z,1.88
2023-02-27T13:36:45.833Z,1.90
2023-02-27T13:39:38.997Z,1.98
2023-02-27T13:42:10.132Z,1.70
2023-02-27T13:44:41.493Z,1.65
2023-02-27T13:47:51.580Z,1.40
2023-02-27T13:50:51.987Z,1.80
2023-02-27T13:53:20.160Z,1.25
2023-02-27T13:55:47.553Z,1.60
2023-02-27T13:58:17.816Z,1.67
2023-02-27T14:00:46.538Z,1.67
2023-02-27T14:03:20.019Z,1.48
2023-02-27T14:05:48.473Z,1.80
2023-02-27T14:08:18.128Z,1.42
2023-02-27T14:10:54.296Z,1.70
2023-02-27T14:13:56.990Z,1.48
2023-02-27T14:17:07.067Z,1.63
2023-02-27T14:19:56.622Z,1.40
2023-02-27T14:23:08.672Z,1.50
2023-02-27T14:25:39.215Z,1.50
2023-02-27T14:28:06.969Z,1.33
2023-02-27T14:30:37.029Z,1.10
2023-02-27T14:33:11.559Z,1.20
2023-02-27T14:35:38.992Z,1.30
2023-02-27T14:38:10.142Z,1.60
2023-02-27T14:40:41.427Z,1.90
2023-02-27T14:43:14.227Z,1.45
2023-02-27T14:45:41.603Z,1.20
2023-02-27T14:48:09.278Z,1.40
2023-02-27T14:50:37.819Z,1.30
2023-02-27T14:53:05.285Z,1.02
2023-02-27T14:55:33.719Z,1.20
2023-02-27T14:58:09.499Z,1.15
2023-02-27T15:00:38.376Z,1.30
2023-02-27T15:03:17.636Z,1.40
2023-02-27T15:05:45.396Z,1.53
2023-02-27T15:08:16.196Z,1.50
2023-02-27T15:10:43.689Z,1.30
2023-02-27T15:13:22.918Z,1.35
2023-02-27T15:15:52.206Z,1.20
2023-02-27T15:18:23.533Z,1.20
2023-02-27T15:20:57.790Z,1.50
2023-02-27T15:23:26.811Z,1.58
2023-02-27T15:25:56.474Z,1.30
2023-02-27T15:28:26.296Z,1.20
2023-02-27T15:30:55.651Z,1.30
2023-02-27T15:33:25.841Z,1.10
2023-02-27T15:38:25.282Z,1.27
2023-02-27T15:40:52.639Z,1.63
2023-02-27T15:43:20.197Z,1.67
2023-02-27T15:45:48.973Z,1.52
2023-02-27T15:48:16.640Z,3.10
2023-02-27T15:50:45.106Z,2.08
2023-02-27T15:53:13.497Z,1.90
2023-02-27T15:55:41.859Z,1.95
2023-02-27T15:58:18.003Z,1.95
2023-02-27T16:00:45.629Z,2.08
2023-02-27T16:03:23.013Z,2.10
2023-02-27T16:05:51.730Z,2.20
2023-02-27T16:08:19.576Z,2.08
2023-02-27T16:10:46.984Z,2.00
2023-02-27T16:13:21.587Z,1.98
2023-02-27T16:15:59.129Z,1.65
2023-02-27T16:18:30.158Z,1.85
2023-02-27T16:20:59.620Z,2.13
2023-02-27T16:23:27.707Z,1.67
2023-02-27T16:26:05.494Z,2.10
2023-02-27T16:28:33.881Z,2.20
2023-02-27T16:31:01.271Z,2.05
2023-02-27T16:33:32.883Z,2.00
2023-02-27T16:36:09.458Z,2.00
2023-02-27T16:38:36.861Z,1.60
2023-02-27T16:41:04.443Z,1.90
2023-02-27T16:43:33.578Z,2.10
2023-02-27T16:46:01.125Z,1.85
2023-02-27T16:48:29.916Z,2.22
2023-02-27T16:50:57.430Z,2.40
2023-02-27T16:53:24.834Z,2.05
2023-02-27T16:55:52.233Z,2.10
2023-02-27T16:58:19.682Z,2.10
2023-02-27T17:00:47.159Z,2.33
2023-02-27T17:03:14.681Z,2.53
2023-02-27T17:05:43.552Z,2.00
2023-02-27T17:08:11.084Z,2.10
2023-02-27T17:10:38.457Z,2.17
2023-02-27T17:13:06.149Z,1.98
2023-02-27T17:15:33.618Z,1.90
2023-02-27T17:18:01.032Z,2.00
2023-02-27T17:20:30.041Z,2.33
2023-02-27T17:22:58.729Z,1.90
2023-02-27T17:25:27.064Z,2.10
2023-02-27T17:27:54.431Z,2.13
2023-02-27T17:30:22.036Z,1.88
2023-02-27T17:32:49.415Z,1.95
2023-02-27T17:35:16.804Z,1.85
2023-02-27T17:37:44.192Z,2.03
2023-02-27T17:40:13.659Z,1.90
2023-02-27T17:42:41.093Z,1.92
2023-02-27T17:45:09.674Z,2.30
2023-02-27T17:47:37.320Z,2.28
2023-02-27T17:50:05.209Z,2.05
2023-02-27T17:52:32.581Z,1.80
2023-02-27T17:54:59.957Z,2.53
2023-02-27T17:57:28.654Z,2.45
2023-02-27T17:59:56.097Z,2.17
2023-02-27T18:02:23.619Z,2.08
2023-02-27T18:04:51.038Z,2.33
2023-02-27T18:07:18.400Z,2.20
2023-02-27T18:09:46.580Z,2.17
2023-02-27T18:12:13.972Z,2.15
2023-02-27T18:14:42.735Z,1.73
2023-02-27T18:17:12.375Z,2.28
2023-02-27T18:19:40.127Z,2.03
2023-02-27T18:22:07.484Z,1.92
2023-02-27T18:24:34.899Z,2.00
2023-02-27T18:27:02.309Z,2.17
2023-02-27T18:29:29.701Z,1.83
2023-02-27T18:31:58.406Z,2.00
2023-02-27T18:34:26.015Z,1.90
2023-02-27T18:36:53.380Z,2.30
2023-02-27T18:39:22.495Z,2.47
2023-02-27T18:41:49.865Z,2.10
2023-02-27T18:44:17.240Z,2.35
2023-02-27T18:46:44.716Z,2.20
2023-02-27T18:49:13.416Z,2.20
2023-02-27T18:51:40.805Z,2.13
2023-02-27T18:54:08.198Z,2.30
2023-02-27T18:56:35.566Z,1.80
2023-02-27T18:59:05.101Z,2.10
2023-02-27T19:01:33.377Z,2.30
2023-02-27T19:04:03.540Z,2.25
2023-02-27T19:06:32.854Z,2.53
2023-02-27T19:09:00.276Z,2.38
2023-02-27T19:11:29.322Z,2.35
2023-02-27T19:13:57.071Z,2.20
2023-02-27T19:16:24.454Z,2.20
2023-02-27T19:18:51.844Z,2.30
2023-02-27T19:21:19.232Z,2.40
2023-02-27T19:23:47.924Z,2.40
2023-02-27T19:26:15.332Z,2.80
2023-02-27T19:28:42.705Z,2.40
2023-02-27T19:31:10.730Z,2.72
2023-02-27T19:33:38.203Z,2.45
2023-02-27T19:36:06.680Z,2.50
2023-02-27T19:38:34.093Z,3.00
2023-02-27T19:41:03.368Z,2.90
2023-02-27T19:43:31.224Z,3.37
2023-02-27T19:45:58.716Z,2.72
2023-02-27T19:50:48.191Z,3.13
2023-02-27T19:53:15.591Z,3.20
2023-02-27T19:55:42.985Z,3.22
2023-02-27T19:58:11.661Z,3.72
2023-02-27T20:00:40.536Z,3.53
2023-02-27T20:03:08.020Z,4.03
2023-02-27T20:05:38.409Z,4.00
2023-02-27T20:08:06.127Z,3.75
2023-02-27T20:10:33.659Z,3.83
2023-02-27T20:13:01.034Z,4.25
2023-02-27T20:15:29.784Z,3.53
2023-02-27T20:17:57.149Z,3.60
2023-02-27T20:20:24.532Z,3.50
2023-02-27T20:22:52.442Z,4.28
2023-02-27T20:25:19.862Z,3.80
2023-02-27T20:27:47.211Z,3.97
2023-02-27T20:30:14.620Z,4.07
2023-02-27T20:32:45.965Z,3.40
2023-02-27T20:35:14.148Z,3.78
2023-02-27T20:37:41.520Z,3.65
2023-02-27T20:40:10.632Z,3.55
2023-02-27T20:42:37.996Z,3.58
2023-02-27T20:45:06.467Z,3.70
2023-02-27T20:47:33.846Z,3.97
2023-02-27T20:50:02.539Z,3.65
2023-02-27T20:52:29.909Z,3.28
2023-02-27T20:54:57.343Z,4.13
2023-02-27T20:57:24.699Z,3.40
2023-02-27T20:59:52.127Z,3.42
2023-02-27T21:02:19.506Z,3.55
2023-02-27T21:04:47.262Z,3.50
2023-02-27T21:07:17.167Z,3.22
2023-02-27T21:09:44.599Z,3.00
2023-02-27T21:12:12.111Z,3.25
2023-02-27T21:14:39.526Z,3.25
2023-02-27T21:17:06.925Z,3.42
2023-02-27T21:19:34.338Z,3.00
2023-02-27T21:22:01.717Z,3.40
2023-02-27T21:24:32.324Z,3.22
2023-02-27T21:26:59.950Z,3.42
2023-02-27T21:29:27.356Z,3.20
2023-02-27T21:31:54.809Z,3.33
2023-02-27T21:34:23.690Z,3.50
2023-02-27T21:36:51.384Z,3.40
2023-02-27T21:39:19.797Z,3.47
2023-02-27T21:41:49.130Z,2.75
2023-02-27T21:44:18.264Z,2.85
2023-02-27T21:46:46.012Z,3.17
2023-02-27T21:49:15.845Z,3.22
2023-02-27T21:51:43.456Z,3.08
2023-02-27T21:54:11.737Z,3.20
2023-02-27T21:56:39.392Z,3.00
2023-02-27T21:59:08.472Z,3.38
2023-02-27T22:01:36.023Z,3.10
2023-02-27T22:04:03.590Z,3.42
2023-02-27T22:06:32.464Z,3.17
2023-02-27T22:09:01.241Z,3.38
2023-02-27T22:11:29.492Z,2.70
2023-02-27T22:13:57.179Z,3.30
2023-02-27T22:16:25.868Z,2.83
2023-02-27T22:18:53.243Z,2.83
2023-02-27T22:21:22.570Z,2.83
2023-02-27T22:23:50.018Z,3.15
2023-02-27T22:26:18.498Z,2.53
2023-02-27T22:28:45.880Z,3.00
2023-02-27T22:31:14.481Z,2.65
2023-02-27T22:33:43.817Z,2.60
2023-02-27T22:36:12.372Z,2.83
2023-02-27T22:38:39.784Z,2.22
2023-02-27T22:41:07.682Z,2.30
2023-02-27T22:43:35.193Z,2.13
2023-02-27T22:46:02.616Z,2.28
2023-02-27T22:48:30.014Z,2.13
2023-02-27T22:50:59.721Z,2.05
2023-02-27T22:53:27.339Z,2.10
2023-02-27T22:55:55.327Z,2.20
2023-02-27T22:58:22.808Z,1.90
2023-02-27T23:00:50.284Z,2.10
2023-02-27T23:03:18.008Z,2.15
2023-02-27T23:05:46.178Z,1.65
2023-02-27T23:08:14.891Z,1.80
2023-02-27T23:10:42.267Z,1.90
2023-02-27T23:13:09.709Z,1.90
2023-02-27T23:15:38.434Z,1.90
2023-02-27T23:18:06.727Z,2.00
2023-02-27T23:20:37.182Z,1.92
2023-02-27T23:23:05.274Z,2.05
2023-02-27T23:25:34.460Z,2.00
2023-02-27T23:28:02.097Z,2.45
2023-02-27T23:30:29.526Z,2.22
2023-02-27T23:32:57.001Z,2.42
2023-02-27T23:35:24.526Z,2.47
2023-02-27T23:37:52.089Z,2.33
2023-02-27T23:40:19.645Z,2.42
2023-02-27T23:43:05.937Z,2.20
2023-02-27T23:45:33.400Z,2.53
2023-02-27T23:48:01.400Z,2.30
2023-02-27T23:50:29.936Z,2.50
2023-02-27T23:52:58.778Z,2.30
2023-02-27T23:55:26.243Z,2.30
2023-02-27T23:57:55.384Z,2.30
